createdAt,value
2018-09-20T00:02:45.110Z,18.20
2018-09-20T00:05:56.250Z,18.20
2018-09-20T00:09:08.645Z,18.20
2018-09-20T00:12:20.662Z,18.20
2018-09-20T00:15:38.831Z,18.20
2018-09-20T00:18:50.400Z,18.20
2018-09-20T00:22:02.122Z,18.20
2018-09-20T00:25:13.906Z,18.10
2018-09-20T00:28:24.983Z,18.10
2018-09-20T00:31:36.925Z,18.10
2018-09-20T00:34:48.538Z,18.10
2018-09-20T00:38:00.475Z,18.10
2018-09-20T00:41:11.746Z,18.00
2018-09-20T00:44:22.895Z,17.90
2018-09-20T00:47:34.762Z,17.90
2018-09-20T00:50:46.400Z,17.80
2018-09-20T00:53:58.451Z,17.90
2018-09-20T00:57:10.433Z,17.80
2018-09-20T01:00:21.879Z,17.80
2018-09-20T01:03:33.768Z,17.70
2018-09-20T01:06:45.700Z,17.80
2018-09-20T01:09:56.976Z,17.80
2018-09-20T01:13:08.118Z,17.80
2018-09-20T01:16:19.310Z,17.80
2018-09-20T01:19:31.223Z,17.80
2018-09-20T01:22:43.186Z,17.80
2018-09-20T01:25:54.465Z,17.80
2018-09-20T01:29:06.285Z,17.70
2018-09-20T01:32:17.620Z,17.80
2018-09-20T01:35:29.715Z,17.70
2018-09-20T01:38:41.988Z,17.70
2018-09-20T01:41:53.110Z,17.70
2018-09-20T01:45:05.740Z,17.70
2018-09-20T01:48:17.354Z,17.70
2018-09-20T01:51:28.593Z,17.70
2018-09-20T01:54:40.634Z,17.70
2018-09-20T01:57:52.648Z,17.60
2018-09-20T02:01:04.548Z,17.50
2018-09-20T02:04:16.431Z,17.60
2018-09-20T02:07:28.223Z,17.50
2018-09-20T02:10:39.917Z,17.40
2018-09-20T02:13:51.105Z,17.40
2018-09-20T02:17:03.119Z,17.30
2018-09-20T02:20:14.222Z,17.40
2018-09-20T02:23:25.666Z,17.30
2018-09-20T02:26:37.608Z,17.40
2018-09-20T02:29:49.190Z,17.40
2018-09-20T02:33:00.878Z,17.40
2018-09-20T02:36:12.881Z,17.40
2018-09-20T02:39:24.495Z,17.40
2018-09-20T02:42:35.784Z,17.40
2018-09-20T02:45:46.905Z,17.40
2018-09-20T02:48:58.008Z,17.40
2018-09-20T02:52:09.560Z,17.30
2018-09-20T02:55:21.417Z,17.30
2018-09-20T02:58:33.442Z,17.30
2018-09-20T03:01:44.923Z,17.20
2018-09-20T03:04:56.273Z,17.20
2018-09-20T03:08:08.426Z,17.20
2018-09-20T03:11:19.969Z,17.20
2018-09-20T03:14:32.030Z,17.20
2018-09-20T03:17:43.138Z,17.00
2018-09-20T03:20:54.976Z,17.10
2018-09-20T03:24:07.088Z,17.10
2018-09-20T03:27:18.924Z,17.10
2018-09-20T03:30:30.621Z,17.10
2018-09-20T03:33:42.346Z,17.00
2018-09-20T03:36:53.785Z,17.10
2018-09-20T03:40:05.377Z,17.10
2018-09-20T03:43:17.243Z,17.10
2018-09-20T03:46:29.176Z,17.10
2018-09-20T03:49:40.344Z,17.10
2018-09-20T03:52:51.462Z,17.10
2018-09-20T03:56:03.240Z,17.10
2018-09-20T03:59:14.840Z,17.10
2018-09-20T04:02:26.836Z,17.10
2018-09-20T04:05:37.970Z,17.00
2018-09-20T04:08:49.222Z,17.10
2018-09-20T04:12:01.233Z,17.10
2018-09-20T04:15:13.266Z,17.10
2018-09-20T04:18:24.373Z,17.10
2018-09-20T04:21:36.442Z,17.10
2018-09-20T04:24:47.504Z,17.00
2018-09-20T04:27:58.764Z,17.00
2018-09-20T04:31:09.953Z,17.00
2018-09-20T04:34:21.113Z,16.90
2018-09-20T04:37:33.023Z,16.90
2018-09-20T04:40:44.479Z,16.80
2018-09-20T04:43:56.452Z,16.70
2018-09-20T04:47:07.783Z,16.70
2018-09-20T04:50:18.888Z,16.70
2018-09-20T04:53:30.672Z,16.70
2018-09-20T04:56:42.677Z,16.80
2018-09-20T04:59:54.670Z,16.80
2018-09-20T05:03:06.811Z,16.80
2018-09-20T05:06:18.840Z,16.80
2018-09-20T05:09:30.079Z,16.80
2018-09-20T05:12:42.608Z,16.70
2018-09-20T05:15:53.766Z,16.70
2018-09-20T05:19:05.569Z,16.70
2018-09-20T05:22:17.341Z,16.70
2018-09-20T05:25:28.528Z,16.70
2018-09-20T05:28:40.484Z,16.70
2018-09-20T05:31:51.774Z,16.80
2018-09-20T05:35:03.803Z,16.80
2018-09-20T05:38:16.966Z,17.30
2018-09-20T05:41:28.110Z,18.10
2018-09-20T05:44:39.308Z,17.70
2018-09-20T05:47:50.366Z,17.60
2018-09-20T05:51:01.820Z,17.50
2018-09-20T05:54:13.090Z,17.60
2018-09-20T05:57:24.510Z,17.60
2018-09-20T06:00:36.935Z,17.60
2018-09-20T06:03:48.571Z,17.70
2018-09-20T06:06:59.692Z,17.80
2018-09-20T06:10:10.794Z,17.80
2018-09-20T06:13:21.958Z,17.90
2018-09-20T06:16:33.401Z,18.00
2018-09-20T06:19:45.256Z,18.20
2018-09-20T06:22:56.535Z,18.30
2018-09-20T06:26:07.712Z,18.50
2018-09-20T06:29:19.117Z,18.60
2018-09-20T06:32:31.049Z,18.80
2018-09-20T06:35:42.436Z,18.90
2018-09-20T06:38:54.773Z,19.10
2018-09-20T06:42:06.903Z,19.20
2018-09-20T06:45:50.115Z,19.20
2018-09-20T06:49:02.085Z,19.20
2018-09-20T06:52:13.983Z,19.20
2018-09-20T06:55:26.503Z,19.20
2018-09-20T06:58:37.518Z,19.30
2018-09-20T07:01:49.402Z,19.50
2018-09-20T07:05:00.536Z,19.70
2018-09-20T07:08:12.526Z,19.90
2018-09-20T07:11:24.350Z,20.00
2018-09-20T07:14:36.235Z,20.20
2018-09-20T07:17:48.183Z,20.30
2018-09-20T07:21:00.129Z,20.40
2018-09-20T07:24:11.829Z,20.40
2018-09-20T07:27:23.619Z,20.60
2018-09-20T07:30:35.560Z,20.70
2018-09-20T07:33:47.443Z,20.90
2018-09-20T07:36:59.433Z,21.00
2018-09-20T07:40:11.657Z,21.20
2018-09-20T07:43:23.010Z,21.30
2018-09-20T07:46:34.302Z,21.50
2018-09-20T07:49:45.977Z,21.70
2018-09-20T07:52:58.420Z,21.80
2018-09-20T07:56:09.732Z,22.00
2018-09-20T07:59:20.820Z,22.20
2018-09-20T08:02:32.625Z,22.30
2018-09-20T08:05:44.189Z,22.60
2018-09-20T08:08:55.280Z,22.80
2018-09-20T08:12:06.999Z,22.90
2018-09-20T08:15:18.521Z,23.00
2018-09-20T08:18:30.249Z,23.00
2018-09-20T08:21:41.219Z,23.20
2018-09-20T08:24:52.967Z,23.30
2018-09-20T08:28:03.968Z,23.40
2018-09-20T08:31:14.792Z,23.40
2018-09-20T08:34:25.721Z,23.50
2018-09-20T08:37:36.738Z,23.60
2018-09-20T08:40:49.235Z,23.70
2018-09-20T08:44:00.386Z,23.90
2018-09-20T08:47:11.387Z,24.00
2018-09-20T08:50:22.329Z,24.20
2018-09-20T08:53:33.257Z,24.20
2018-09-20T08:56:44.440Z,24.40
2018-09-20T08:59:56.281Z,24.40
2018-09-20T09:03:07.220Z,24.30
2018-09-20T09:06:19.172Z,24.40
2018-09-20T09:09:30.633Z,24.50
2018-09-20T09:12:41.422Z,24.50
2018-09-20T09:15:53.269Z,24.70
2018-09-20T09:19:04.101Z,25.00
2018-09-20T09:22:15.096Z,24.90
2018-09-20T09:25:25.979Z,24.90
2018-09-20T09:28:37.631Z,24.90
2018-09-20T09:31:48.640Z,25.00
2018-09-20T09:34:59.410Z,25.40
2018-09-20T09:38:10.497Z,25.50
2018-09-20T09:41:22.769Z,25.80
2018-09-20T09:44:34.114Z,26.00
2018-09-20T09:47:45.277Z,26.00
2018-09-20T09:50:56.205Z,25.80
2018-09-20T09:54:07.635Z,26.10
2018-09-20T09:57:19.380Z,26.20
2018-09-20T10:00:33.934Z,26.20
2018-09-20T10:03:45.003Z,26.20
2018-09-20T10:06:56.168Z,26.30
2018-09-20T10:10:07.741Z,26.40
2018-09-20T10:13:19.137Z,26.70
2018-09-20T10:16:30.931Z,26.60
2018-09-20T10:19:42.167Z,26.90
2018-09-20T10:22:53.101Z,27.00
2018-09-20T10:26:03.991Z,27.00
2018-09-20T10:29:14.998Z,27.00
2018-09-20T10:32:26.636Z,27.10
2018-09-20T10:35:37.525Z,27.10
2018-09-20T10:38:48.351Z,27.10
2018-09-20T10:42:00.281Z,27.10
2018-09-20T10:45:12.096Z,27.10
2018-09-20T10:48:23.088Z,27.20
2018-09-20T10:51:35.413Z,27.20
2018-09-20T10:54:46.883Z,27.20
2018-09-20T10:57:57.642Z,27.40
2018-09-20T11:01:08.499Z,27.60
2018-09-20T11:04:19.445Z,27.50
2018-09-20T11:07:30.188Z,27.70
2018-09-20T11:10:41.190Z,27.70
2018-09-20T11:13:52.809Z,27.80
2018-09-20T11:17:04.156Z,27.70
2018-09-20T11:20:15.646Z,27.70
2018-09-20T11:23:27.519Z,27.70
2018-09-20T11:26:38.322Z,27.90
2018-09-20T11:29:49.989Z,27.90
2018-09-20T11:33:01.666Z,27.80
2018-09-20T11:36:13.418Z,27.80
2018-09-20T11:39:24.127Z,28.30
2018-09-20T11:42:35.362Z,28.40
2018-09-20T11:45:46.818Z,28.30
2018-09-20T11:48:57.690Z,28.50
2018-09-20T11:52:08.710Z,28.20
2018-09-20T11:55:19.627Z,28.10
2018-09-20T11:58:30.646Z,28.20
2018-09-20T12:01:41.505Z,28.10
2018-09-20T12:04:52.529Z,28.00
2018-09-20T12:08:03.480Z,28.10
2018-09-20T12:11:14.286Z,28.00
2018-09-20T12:14:26.043Z,27.90
2018-09-20T12:17:36.993Z,27.70
2018-09-20T12:20:47.894Z,27.80
2018-09-20T12:23:58.852Z,27.80
2018-09-20T12:27:09.716Z,27.80
2018-09-20T12:30:20.756Z,27.80
2018-09-20T12:33:31.838Z,27.60
2018-09-20T12:36:42.676Z,27.70
2018-09-20T12:39:53.980Z,27.80
2018-09-20T12:43:06.280Z,28.00
2018-09-20T12:46:17.236Z,28.20
2018-09-20T12:49:28.275Z,28.40
2018-09-20T12:52:39.227Z,28.20
2018-09-20T12:55:50.847Z,28.30
2018-09-20T12:59:01.802Z,28.40
2018-09-20T13:02:13.467Z,28.50
2018-09-20T13:05:24.467Z,28.30
2018-09-20T13:08:35.272Z,28.30
2018-09-20T13:11:46.502Z,28.10
2018-09-20T13:14:57.921Z,28.10
2018-09-20T13:18:09.651Z,28.10
2018-09-20T13:21:21.239Z,28.10
2018-09-20T13:24:32.818Z,28.30
2018-09-20T13:27:43.927Z,28.30
2018-09-20T13:30:54.753Z,28.30
2018-09-20T13:34:06.773Z,28.50
2018-09-20T13:37:18.383Z,28.50
2018-09-20T13:40:30.065Z,28.60
2018-09-20T13:43:41.299Z,28.90
2018-09-20T13:46:53.042Z,28.90
2018-09-20T13:50:04.530Z,29.00
2018-09-20T13:53:16.311Z,29.20
2018-09-20T13:56:28.116Z,29.20
2018-09-20T13:59:39.842Z,29.40
2018-09-20T14:02:51.604Z,29.30
2018-09-20T14:06:03.277Z,29.20
2018-09-20T14:09:15.110Z,29.00
2018-09-20T14:12:26.401Z,29.00
2018-09-20T14:15:37.854Z,29.30
2018-09-20T14:18:49.024Z,29.10
2018-09-20T14:22:00.576Z,29.00
2018-09-20T14:25:11.761Z,29.20
2018-09-20T14:28:22.745Z,29.20
2018-09-20T14:31:34.566Z,29.10
2018-09-20T14:34:46.128Z,29.10
2018-09-20T14:37:56.956Z,29.00
2018-09-20T14:41:07.966Z,28.90
2018-09-20T14:44:20.128Z,28.90
2018-09-20T14:47:31.388Z,29.10
2018-09-20T14:50:42.563Z,29.10
2018-09-20T14:53:53.594Z,29.10
2018-09-20T14:57:04.468Z,29.10
2018-09-20T15:00:15.918Z,28.90
2018-09-20T15:03:27.257Z,28.80
2018-09-20T15:06:38.364Z,28.80
2018-09-20T15:09:49.443Z,28.60
2018-09-20T15:13:00.483Z,28.40
2018-09-20T15:16:11.444Z,28.50
2018-09-20T15:19:23.583Z,28.50
2018-09-20T15:22:35.079Z,28.50
2018-09-20T15:25:46.025Z,28.40
2018-09-20T15:28:57.670Z,28.40
2018-09-20T15:32:10.056Z,28.20
2018-09-20T15:35:21.083Z,28.10
2018-09-20T15:38:32.212Z,28.20
2018-09-20T15:41:43.793Z,28.10
2018-09-20T15:44:55.898Z,27.80
2018-09-20T15:48:07.368Z,27.80
2018-09-20T15:51:19.116Z,27.80
2018-09-20T15:54:30.610Z,27.70
2018-09-20T15:57:41.528Z,27.70
2018-09-20T16:00:52.405Z,27.60
2018-09-20T16:04:03.511Z,27.50
2018-09-20T16:07:14.660Z,27.40
2018-09-20T16:10:26.291Z,27.40
2018-09-20T16:13:38.317Z,27.30
2018-09-20T16:16:50.046Z,27.20
2018-09-20T16:20:01.927Z,27.20
2018-09-20T16:23:12.829Z,27.10
2018-09-20T16:26:23.809Z,27.00
2018-09-20T16:29:44.311Z,26.90
2018-09-20T16:33:53.448Z,26.80
2018-09-20T16:37:22.412Z,26.80
2018-09-20T16:40:35.346Z,26.70
2018-09-20T16:43:46.193Z,26.60
2018-09-20T16:46:57.533Z,26.50
2018-09-20T16:50:08.925Z,26.50
2018-09-20T16:53:20.980Z,26.40
2018-09-20T16:56:32.672Z,26.30
2018-09-20T16:59:43.466Z,26.10
2018-09-20T17:02:54.640Z,26.10
2018-09-20T17:06:06.363Z,26.00
2018-09-20T17:09:17.315Z,25.80
2018-09-20T17:12:28.227Z,25.80
2018-09-20T17:15:39.008Z,25.70
2018-09-20T17:18:49.870Z,25.60
2018-09-20T17:22:00.684Z,25.50
2018-09-20T17:25:11.428Z,25.40
2018-09-20T17:28:22.550Z,25.30
2018-09-20T17:31:33.412Z,25.20
2018-09-20T17:34:44.514Z,25.10
2018-09-20T17:37:56.920Z,25.00
2018-09-20T17:41:11.178Z,24.90
2018-09-20T17:44:22.780Z,24.80
2018-09-20T17:47:34.158Z,24.70
2018-09-20T17:50:45.775Z,24.70
2018-09-20T17:53:58.421Z,24.50
2018-09-20T17:57:10.787Z,24.40
2018-09-20T18:00:23.859Z,24.20
2018-09-20T18:03:35.196Z,24.10
2018-09-20T18:06:46.321Z,24.00
2018-09-20T18:09:57.338Z,23.90
2018-09-20T18:13:09.024Z,23.80
2018-09-20T18:16:19.972Z,23.60
2018-09-20T18:19:31.319Z,23.30
2018-09-20T18:22:42.648Z,23.30
2018-09-20T18:25:53.613Z,23.20
2018-09-20T18:29:04.379Z,23.10
2018-09-20T18:32:15.698Z,23.10
2018-09-20T18:35:27.229Z,22.90
2018-09-20T18:38:38.280Z,22.80
2018-09-20T18:41:50.055Z,22.70
2018-09-20T18:45:01.826Z,22.50
2018-09-20T18:48:13.877Z,22.40
2018-09-20T18:51:25.224Z,22.20
2018-09-20T18:54:36.169Z,22.20
2018-09-20T18:57:47.204Z,22.00
2018-09-20T19:00:58.229Z,21.90
2018-09-20T19:04:09.302Z,21.80
2018-09-20T19:07:20.409Z,21.70
2018-09-20T19:10:32.481Z,21.70
2018-09-20T19:13:44.424Z,21.60
2018-09-20T19:16:56.168Z,21.60
2018-09-20T19:20:08.955Z,21.50
2018-09-20T19:23:20.836Z,21.50
2018-09-20T19:26:32.495Z,21.50
2018-09-20T19:29:43.570Z,21.60
2018-09-20T19:32:55.364Z,21.60
2018-09-20T19:36:06.917Z,21.60
2018-09-20T19:39:18.255Z,21.70
2018-09-20T19:42:29.116Z,21.60
2018-09-20T19:45:40.603Z,21.70
2018-09-20T19:48:52.884Z,21.70
2018-09-20T19:52:04.451Z,21.70
2018-09-20T19:55:16.094Z,21.80
2018-09-20T19:58:27.086Z,21.70
2018-09-20T20:01:38.874Z,21.70
2018-09-20T20:04:49.897Z,21.80
2018-09-20T20:08:01.118Z,21.70
2018-09-20T20:11:12.832Z,21.70
2018-09-20T20:14:23.947Z,21.60
2018-09-20T20:17:36.170Z,21.60
2018-09-20T20:20:47.763Z,21.20
2018-09-20T20:23:59.406Z,21.30
2018-09-20T20:27:11.307Z,21.10
2018-09-20T20:30:22.382Z,21.10
2018-09-20T20:33:34.246Z,21.10
2018-09-20T20:36:46.158Z,21.00
2018-09-20T20:39:58.108Z,20.80
2018-09-20T20:43:09.914Z,20.80
2018-09-20T20:46:21.993Z,20.70
2018-09-20T20:49:33.984Z,20.50
2018-09-20T20:52:45.472Z,20.50
2018-09-20T20:55:57.267Z,20.50
2018-09-20T20:59:09.531Z,20.30
2018-09-20T21:02:21.063Z,20.40
2018-09-20T21:05:33.020Z,20.40
2018-09-20T21:08:45.366Z,20.50
2018-09-20T21:11:56.878Z,20.50
2018-09-20T21:15:08.571Z,20.50
2018-09-20T21:18:20.436Z,20.50
2018-09-20T21:21:32.331Z,20.60
2018-09-20T21:24:43.939Z,20.70
2018-09-20T21:27:55.999Z,20.70
2018-09-20T21:31:08.104Z,20.80
2018-09-20T21:34:19.741Z,20.70
2018-09-20T21:37:31.428Z,20.70
2018-09-20T21:40:43.440Z,20.80
2018-09-20T21:43:54.706Z,20.90
2018-09-20T21:47:06.849Z,21.00
2018-09-20T21:50:18.601Z,21.00
2018-09-20T21:53:30.043Z,21.20
2018-09-20T21:56:41.264Z,21.10
2018-09-20T21:59:52.966Z,21.10
2018-09-20T22:03:05.545Z,21.20
2018-09-20T22:06:17.473Z,21.20
2018-09-20T22:09:29.779Z,21.20
2018-09-20T22:12:41.247Z,21.10
2018-09-20T22:15:53.230Z,21.00
2018-09-20T22:19:05.143Z,21.00
2018-09-20T22:22:16.879Z,20.90
2018-09-20T22:25:30.310Z,20.80
2018-09-20T22:28:41.370Z,20.80
2018-09-20T22:31:52.363Z,20.80
2018-09-20T22:35:04.922Z,20.70
2018-09-20T22:38:16.388Z,20.60
2018-09-20T22:41:28.800Z,20.60
2018-09-20T22:44:40.110Z,20.60
2018-09-20T22:47:51.290Z,20.50
2018-09-20T22:51:02.706Z,20.50
2018-09-20T22:54:14.303Z,20.50
2018-09-20T22:57:25.322Z,20.40
2018-09-20T23:00:36.745Z,20.40
2018-09-20T23:03:48.500Z,20.40
2018-09-20T23:07:00.445Z,20.30
2018-09-20T23:10:12.373Z,20.30
2018-09-20T23:13:24.045Z,20.30
2018-09-20T23:16:35.137Z,20.30
2018-09-20T23:19:46.980Z,20.30
2018-09-20T23:22:58.961Z,20.20
2018-09-20T23:26:11.111Z,20.20
2018-09-20T23:29:22.799Z,20.10
2018-09-20T23:32:34.781Z,20.00
2018-09-20T23:35:46.750Z,20.00
2018-09-20T23:38:58.735Z,19.90
2018-09-20T23:42:10.724Z,19.90
2018-09-20T23:45:22.564Z,19.90
2018-09-20T23:48:34.452Z,19.90
2018-09-20T23:51:47.251Z,19.90
2018-09-20T23:54:58.304Z,19.90
2018-09-20T23:58:10.310Z,19.80
